sensor_id;sensor_type;location;lat;lon;timestamp;pressure;altitude;pressure_sealevel;temperature;humidity
45541;BME280;31265;49.680;8.608;2023-02-11T00:01:21;102654.94;;;0.25;100.00
45541;BME280;31265;49.680;8.608;2023-02-11T00:03:52;102655.28;;;0.27;100.00
45541;BME280;31265;49.680;8.608;2023-02-11T00:06:21;102660.13;;;0.35;100.00
45541;BME280;31265;49.680;8.608;2023-02-11T00:08:49;102657.41;;;0.35;100.00
45541;BME280;31265;49.680;8.608;2023-02-11T00:11:19;102657.84;;;0.47;100.00
45541;BME280;31265;49.680;8.608;2023-02-11T00:13:48;102652.06;;;0.45;100.00
45541;BME280;31265;49.680;8.608;2023-02-11T00:16:18;102660.91;;;0.49;100.00
45541;BME280;31265;49.680;8.608;2023-02-11T00:18:48;102655.03;;;0.50;100.00
45541;BME280;31265;49.680;8.608;2023-02-11T00:21:21;102657.06;;;0.46;100.00
45541;BME280;31265;49.680;8.608;2023-02-11T00:23:49;102659.13;;;0.42;100.00
45541;BME280;31265;49.680;8.608;2023-02-11T00:26:20;102670.06;;;0.42;100.00
45541;BME280;31265;49.680;8.608;2023-02-11T00:28:50;102655.66;;;0.41;100.00
45541;BME280;31265;49.680;8.608;2023-02-11T00:31:19;102659.25;;;0.38;100.00
45541;BME280;31265;49.680;8.608;2023-02-11T00:33:49;102653.91;;;0.35;100.00
45541;BME280;31265;49.680;8.608;2023-02-11T00:36:19;102653.22;;;0.31;100.00
45541;BME280;31265;49.680;8.608;2023-02-11T00:38:48;102658.38;;;0.41;100.00
45541;BME280;31265;49.680;8.608;2023-02-11T00:41:18;102660.22;;;0.32;100.00
45541;BME280;31265;49.680;8.608;2023-02-11T00:43:47;102649.59;;;0.21;100.00
45541;BME280;31265;49.680;8.608;2023-02-11T00:46:18;102650.13;;;0.16;100.00
45541;BME280;31265;49.680;8.608;2023-02-11T00:48:48;102649.19;;;0.35;100.00
45541;BME280;31265;49.680;8.608;2023-02-11T00:51:20;102645.91;;;0.28;100.00
45541;BME280;31265;49.680;8.608;2023-02-11T00:53:49;102641.94;;;0.16;100.00
45541;BME280;31265;49.680;8.608;2023-02-11T00:56:17;102650.00;;;0.07;100.00
45541;BME280;31265;49.680;8.608;2023-02-11T00:58:46;102647.94;;;0.11;100.00
45541;BME280;31265;49.680;8.608;2023-02-11T01:01:16;102656.69;;;0.18;100.00
45541;BME280;31265;49.680;8.608;2023-02-11T01:03:44;102660.53;;;0.21;100.00
45541;BME280;31265;49.680;8.608;2023-02-11T01:06:15;102659.44;;;0.31;100.00
45541;BME280;31265;49.680;8.608;2023-02-11T01:08:44;102656.72;;;0.31;100.00
45541;BME280;31265;49.680;8.608;2023-02-11T01:11:13;102646.47;;;0.35;100.00
45541;BME280;31265;49.680;8.608;2023-02-11T01:13:44;102642.88;;;0.38;100.00
45541;BME280;31265;49.680;8.608;2023-02-11T01:16:15;102649.75;;;0.43;100.00
45541;BME280;31265;49.680;8.608;2023-02-11T01:18:44;102637.00;;;0.53;100.00
45541;BME280;31265;49.680;8.608;2023-02-11T01:21:14;102634.25;;;0.66;100.00
45541;BME280;31265;49.680;8.608;2023-02-11T01:23:43;102627.03;;;0.72;100.00
45541;BME280;31265;49.680;8.608;2023-02-11T01:26:11;102633.72;;;0.71;100.00
45541;BME280;31265;49.680;8.608;2023-02-11T01:28:41;102641.03;;;0.74;100.00
45541;BME280;31265;49.680;8.608;2023-02-11T01:31:09;102637.66;;;0.82;100.00
45541;BME280;31265;49.680;8.608;2023-02-11T01:33:37;102634.72;;;0.90;100.00
45541;BME280;31265;49.680;8.608;2023-02-11T01:36:06;102629.56;;;0.92;100.00
45541;BME280;31265;49.680;8.608;2023-02-11T01:38:36;102618.09;;;0.97;100.00
45541;BME280;31265;49.680;8.608;2023-02-11T01:41:08;102621.44;;;1.01;100.00
45541;BME280;31265;49.680;8.608;2023-02-11T01:43:39;102615.34;;;0.97;100.00
45541;BME280;31265;49.680;8.608;2023-02-11T01:46:27;102610.63;;;0.97;100.00
45541;BME280;31265;49.680;8.608;2023-02-11T01:49:00;102606.94;;;1.04;100.00
45541;BME280;31265;49.680;8.608;2023-02-11T01:51:33;102612.81;;;1.02;100.00
45541;BME280;31265;49.680;8.608;2023-02-11T01:54:05;102610.41;;;1.04;100.00
45541;BME280;31265;49.680;8.608;2023-02-11T01:56:54;102609.75;;;1.00;100.00
45541;BME280;31265;49.680;8.608;2023-02-11T01:59:45;102592.38;;;1.07;100.00
45541;BME280;31265;49.680;8.608;2023-02-11T02:02:20;102588.09;;;1.06;100.00
45541;BME280;31265;49.680;8.608;2023-02-11T02:04:53;102581.75;;;1.09;100.00
45541;BME280;31265;49.680;8.608;2023-02-11T02:07:32;102576.72;;;1.07;100.00
45541;BME280;31265;49.680;8.608;2023-02-11T02:10:07;102583.47;;;1.16;100.00
45541;BME280;31265;49.680;8.608;2023-02-11T02:12:36;102584.22;;;1.16;100.00
45541;BME280;31265;49.680;8.608;2023-02-11T02:15:23;102586.44;;;1.21;100.00
45541;BME280;31265;49.680;8.608;2023-02-11T02:17:56;102574.59;;;1.24;100.00
45541;BME280;31265;49.680;8.608;2023-02-11T02:21:10;102574.28;;;1.22;100.00
45541;BME280;31265;49.680;8.608;2023-02-11T02:23:54;102574.50;;;1.15;100.00
45541;BME280;31265;49.680;8.608;2023-02-11T02:26:55;102571.13;;;1.11;100.00
45541;BME280;31265;49.680;8.608;2023-02-11T02:32:36;102561.06;;;1.08;100.00
45541;BME280;31265;49.680;8.608;2023-02-11T02:35:13;102555.28;;;1.06;100.00
45541;BME280;31265;49.680;8.608;2023-02-11T02:37:46;102562.06;;;1.01;100.00
45541;BME280;31265;49.680;8.608;2023-02-11T02:40:20;102557.47;;;0.98;100.00
45541;BME280;31265;49.680;8.608;2023-02-11T02:42:51;102557.94;;;0.97;100.00
45541;BME280;31265;49.680;8.608;2023-02-11T02:45:19;102557.72;;;0.91;100.00
45541;BME280;31265;49.680;8.608;2023-02-11T02:47:49;102552.38;;;0.88;100.00
45541;BME280;31265;49.680;8.608;2023-02-11T02:50:22;102538.81;;;0.84;100.00
45541;BME280;31265;49.680;8.608;2023-02-11T02:53:07;102535.88;;;0.78;100.00
45541;BME280;31265;49.680;8.608;2023-02-11T02:55:58;102539.69;;;0.81;100.00
45541;BME280;31265;49.680;8.608;2023-02-11T02:58:53;102543.66;;;0.67;100.00
45541;BME280;31265;49.680;8.608;2023-02-11T03:01:31;102545.59;;;0.67;100.00
45541;BME280;31265;49.680;8.608;2023-02-11T03:04:10;102544.28;;;0.71;100.00
45541;BME280;31265;49.680;8.608;2023-02-11T03:06:47;102555.91;;;0.62;100.00
45541;BME280;31265;49.680;8.608;2023-02-11T03:09:23;102557.22;;;0.58;100.00
45541;BME280;31265;49.680;8.608;2023-02-11T03:11:53;102556.31;;;0.61;100.00
45541;BME280;31265;49.680;8.608;2023-02-11T03:14:23;102564.84;;;0.63;100.00
45541;BME280;31265;49.680;8.608;2023-02-11T03:16:54;102568.13;;;0.58;100.00
45541;BME280;31265;49.680;8.608;2023-02-11T03:19:28;102571.00;;;0.67;100.00
45541;BME280;31265;49.680;8.608;2023-02-11T03:21:58;102584.41;;;0.61;100.00
45541;BME280;31265;49.680;8.608;2023-02-11T03:24:28;102578.72;;;0.56;100.00
45541;BME280;31265;49.680;8.608;2023-02-11T03:27:00;102566.84;;;0.50;100.00
45541;BME280;31265;49.680;8.608;2023-02-11T03:29:32;102566.84;;;0.50;100.00
45541;BME280;31265;49.680;8.608;2023-02-11T03:32:06;102562.34;;;0.56;100.00
45541;BME280;31265;49.680;8.608;2023-02-11T03:34:43;102556.31;;;0.61;100.00
45541;BME280;31265;49.680;8.608;2023-02-11T03:37:17;102550.66;;;0.68;100.00
45541;BME280;31265;49.680;8.608;2023-02-11T03:39:50;102544.81;;;0.79;100.00
45541;BME280;31265;49.680;8.608;2023-02-11T03:42:20;102560.25;;;0.85;100.00
45541;BME280;31265;49.680;8.608;2023-02-11T03:44:53;102546.25;;;0.83;100.00
45541;BME280;31265;49.680;8.608;2023-02-11T03:47:26;102553.25;;;0.84;100.00
45541;BME280;31265;49.680;8.608;2023-02-11T03:49:57;102553.81;;;0.79;100.00
45541;BME280;31265;49.680;8.608;2023-02-11T03:52:27;102546.47;;;0.76;100.00
45541;BME280;31265;49.680;8.608;2023-02-11T03:54:59;102530.28;;;0.69;100.00
45541;BME280;31265;49.680;8.608;2023-02-11T03:57:29;102541.78;;;0.64;100.00
45541;BME280;31265;49.680;8.608;2023-02-11T04:00:00;102537.41;;;0.67;100.00
45541;BME280;31265;49.680;8.608;2023-02-11T04:02:38;102533.50;;;0.55;100.00
45541;BME280;31265;49.680;8.608;2023-02-11T04:05:10;102535.56;;;0.51;100.00
45541;BME280;31265;49.680;8.608;2023-02-11T04:07:39;102521.03;;;0.54;100.00
45541;BME280;31265;49.680;8.608;2023-02-11T04:10:09;102512.75;;;0.45;100.00
45541;BME280;31265;49.680;8.608;2023-02-11T04:12:38;102512.63;;;0.35;100.00
45541;BME280;31265;49.680;8.608;2023-02-11T04:15:06;102510.78;;;0.32;100.00
45541;BME280;31265;49.680;8.608;2023-02-11T04:17:35;102495.50;;;0.35;100.00
45541;BME280;31265;49.680;8.608;2023-02-11T04:20:04;102479.53;;;0.33;100.00
45541;BME280;31265;49.680;8.608;2023-02-11T04:22:34;102483.78;;;0.34;100.00
45541;BME280;31265;49.680;8.608;2023-02-11T04:25:02;102488.38;;;0.25;100.00
45541;BME280;31265;49.680;8.608;2023-02-11T04:27:31;102473.97;;;0.24;100.00
45541;BME280;31265;49.680;8.608;2023-02-11T04:29:59;102471.56;;;0.26;100.00
45541;BME280;31265;49.680;8.608;2023-02-11T04:32:27;102478.00;;;0.19;100.00
45541;BME280;31265;49.680;8.608;2023-02-11T04:34:56;102469.38;;;0.21;100.00
45541;BME280;31265;49.680;8.608;2023-02-11T04:37:24;102476.81;;;0.20;100.00
45541;BME280;31265;49.680;8.608;2023-02-11T04:39:53;102476.38;;;0.35;100.00
45541;BME280;31265;49.680;8.608;2023-02-11T04:42:22;102490.03;;;0.35;100.00
45541;BME280;31265;49.680;8.608;2023-02-11T04:44:50;102490.47;;;0.33;100.00
45541;BME280;31265;49.680;8.608;2023-02-11T04:47:18;102506.41;;;0.22;100.00
45541;BME280;31265;49.680;8.608;2023-02-11T04:49:47;102503.56;;;0.26;100.00
45541;BME280;31265;49.680;8.608;2023-02-11T04:52:15;102506.72;;;0.24;100.00
45541;BME280;31265;49.680;8.608;2023-02-11T04:54:43;102506.97;;;0.30;100.00
45541;BME280;31265;49.680;8.608;2023-02-11T04:57:13;102507.50;;;0.37;100.00
45541;BME280;31265;49.680;8.608;2023-02-11T04:59:41;102516.13;;;0.36;100.00
45541;BME280;31265;49.680;8.608;2023-02-11T05:02:09;102516.88;;;0.36;100.00
45541;BME280;31265;49.680;8.608;2023-02-11T05:04:37;102519.63;;;0.36;100.00
45541;BME280;31265;49.680;8.608;2023-02-11T05:07:06;102522.91;;;0.31;100.00
45541;BME280;31265;49.680;8.608;2023-02-11T05:09:34;102524.75;;;0.34;100.00
45541;BME280;31265;49.680;8.608;2023-02-11T05:12:02;102525.97;;;0.33;100.00
45541;BME280;31265;49.680;8.608;2023-02-11T05:14:32;102520.50;;;0.33;100.00
45541;BME280;31265;49.680;8.608;2023-02-11T05:17:00;102516.25;;;0.45;100.00
45541;BME280;31265;49.680;8.608;2023-02-11T05:19:28;102512.75;;;0.45;100.00
45541;BME280;31265;49.680;8.608;2023-02-11T05:21:57;102494.38;;;0.45;100.00
45541;BME280;31265;49.680;8.608;2023-02-11T05:24:30;102487.16;;;0.51;100.00
45541;BME280;31265;49.680;8.608;2023-02-11T05:26:58;102494.59;;;0.51;100.00
45541;BME280;31265;49.680;8.608;2023-02-11T05:29:27;102500.72;;;0.55;100.00
45541;BME280;31265;49.680;8.608;2023-02-11T05:31:57;102493.38;;;0.52;100.00
45541;BME280;31265;49.680;8.608;2023-02-11T05:34:25;102484.88;;;0.50;100.00
45541;BME280;31265;49.680;8.608;2023-02-11T05:36:54;102486.28;;;0.54;100.00
45541;BME280;31265;49.680;8.608;2023-02-11T05:39:23;102487.91;;;0.52;100.00
45541;BME280;31265;49.680;8.608;2023-02-11T05:41:51;102491.41;;;0.65;100.00
45541;BME280;31265;49.680;8.608;2023-02-11T05:44:19;102496.34;;;0.57;100.00
45541;BME280;31265;49.680;8.608;2023-02-11T05:46:47;102492.28;;;0.62;100.00
45541;BME280;31265;49.680;8.608;2023-02-11T05:49:20;102494.38;;;0.58;100.00
45541;BME280;31265;49.680;8.608;2023-02-11T05:51:48;102485.63;;;0.50;100.00
45541;BME280;31265;49.680;8.608;2023-02-11T05:54:17;102481.81;;;0.48;100.00
45541;BME280;31265;49.680;8.608;2023-02-11T05:56:45;102477.25;;;0.45;100.00
45541;BME280;31265;49.680;8.608;2023-02-11T05:59:13;102478.75;;;0.46;100.00
45541;BME280;31265;49.680;8.608;2023-02-11T06:01:42;102491.66;;;0.45;100.00
45541;BME280;31265;49.680;8.608;2023-02-11T06:04:10;102486.97;;;0.46;100.00
45541;BME280;31265;49.680;8.608;2023-02-11T06:06:40;102485.88;;;0.43;100.00
45541;BME280;31265;49.680;8.608;2023-02-11T06:09:09;102491.19;;;0.47;100.00
45541;BME280;31265;49.680;8.608;2023-02-11T06:11:37;102480.81;;;0.54;100.00
45541;BME280;31265;49.680;8.608;2023-02-11T06:14:06;102484.88;;;0.50;100.00
45541;BME280;31265;49.680;8.608;2023-02-11T06:16:34;102481.81;;;0.48;100.00
45541;BME280;31265;49.680;8.608;2023-02-11T06:19:02;102481.50;;;0.46;100.00
45541;BME280;31265;49.680;8.608;2023-02-11T06:21:30;102501.81;;;0.45;100.00
45541;BME280;31265;49.680;8.608;2023-02-11T06:24:11;102494.59;;;0.38;100.00
45541;BME280;31265;49.680;8.608;2023-02-11T06:26:39;102492.84;;;0.31;100.00
45541;BME280;31265;49.680;8.608;2023-02-11T06:29:08;102504.44;;;0.23;100.00
45541;BME280;31265;49.680;8.608;2023-02-11T06:31:37;102495.81;;;0.24;100.00
45541;BME280;31265;49.680;8.608;2023-02-11T06:34:05;102492.66;;;0.26;100.00
45541;BME280;31265;49.680;8.608;2023-02-11T06:36:34;102500.38;;;0.27;100.00
45541;BME280;31265;49.680;8.608;2023-02-11T06:39:03;102490.13;;;0.31;100.00
45541;BME280;31265;49.680;8.608;2023-02-11T06:41:33;102495.59;;;0.31;100.00
45541;BME280;31265;49.680;8.608;2023-02-11T06:44:01;102495.91;;;0.33;100.00
45541;BME280;31265;49.680;8.608;2023-02-11T06:46:30;102499.31;;;0.37;100.00
45541;BME280;31265;49.680;8.608;2023-02-11T06:48:59;102517.75;;;0.46;100.00
45541;BME280;31265;49.680;8.608;2023-02-11T06:51:28;102517.00;;;0.46;100.00
45541;BME280;31265;49.680;8.608;2023-02-11T06:53:56;102512.97;;;0.50;100.00
45541;BME280;31265;49.680;8.608;2023-02-11T06:56:25;102505.94;;;0.49;100.00
45541;BME280;31265;49.680;8.608;2023-02-11T06:58:56;102515.22;;;0.52;100.00
45541;BME280;31265;49.680;8.608;2023-02-11T07:01:26;102505.09;;;0.52;100.00
45541;BME280;31265;49.680;8.608;2023-02-11T07:03:54;102506.19;;;0.55;100.00
45541;BME280;31265;49.680;8.608;2023-02-11T07:06:24;102499.72;;;0.61;100.00
45541;BME280;31265;49.680;8.608;2023-02-11T07:08:54;102505.97;;;0.62;100.00
45541;BME280;31265;49.680;8.608;2023-02-11T07:11:24;102508.00;;;0.71;100.00
45541;BME280;31265;49.680;8.608;2023-02-11T07:13:59;102511.63;;;0.68;100.00
45541;BME280;31265;49.680;8.608;2023-02-11T07:16:27;102513.16;;;0.69;100.00
45541;BME280;31265;49.680;8.608;2023-02-11T07:18:55;102513.81;;;0.73;100.00
45541;BME280;31265;49.680;8.608;2023-02-11T07:21:24;102512.03;;;0.79;100.00
45541;BME280;31265;49.680;8.608;2023-02-11T07:23:52;102509.75;;;0.77;100.00
45541;BME280;31265;49.680;8.608;2023-02-11T07:26:22;102519.66;;;0.84;100.00
45541;BME280;31265;49.680;8.608;2023-02-11T07:28:52;102512.78;;;0.92;100.00
45541;BME280;31265;49.680;8.608;2023-02-11T07:31:25;102517.16;;;0.90;100.00
45541;BME280;31265;49.680;8.608;2023-02-11T07:33:55;102510.34;;;1.07;100.00
45541;BME280;31265;49.680;8.608;2023-02-11T07:36:25;102519.84;;;1.02;100.00
45541;BME280;31265;49.680;8.608;2023-02-11T07:38:54;102520.19;;;1.04;100.00
45541;BME280;31265;49.680;8.608;2023-02-11T07:41:23;102517.44;;;1.04;100.00
45541;BME280;31265;49.680;8.608;2023-02-11T07:43:52;102517.84;;;1.16;100.00
45541;BME280;31265;49.680;8.608;2023-02-11T07:46:23;102510.38;;;1.16;100.00
45541;BME280;31265;49.680;8.608;2023-02-11T07:48:52;102525.94;;;1.19;100.00
45541;BME280;31265;49.680;8.608;2023-02-11T07:51:22;102531.72;;;1.21;100.00
45541;BME280;31265;49.680;8.608;2023-02-11T07:53:52;102528.44;;;1.26;100.00
45541;BME280;31265;49.680;8.608;2023-02-11T07:56:22;102516.97;;;1.41;100.00
45541;BME280;31265;49.680;8.608;2023-02-11T07:58:51;102528.88;;;1.47;100.00
45541;BME280;31265;49.680;8.608;2023-02-11T08:01:21;102523.91;;;1.55;100.00
45541;BME280;31265;49.680;8.608;2023-02-11T08:03:53;102529.25;;;1.58;100.00
45541;BME280;31265;49.680;8.608;2023-02-11T08:06:23;102522.34;;;1.66;100.00
45541;BME280;31265;49.680;8.608;2023-02-11T08:08:52;102511.38;;;1.66;100.00
45541;BME280;31265;49.680;8.608;2023-02-11T08:11:23;102517.53;;;1.80;100.00
45541;BME280;31265;49.680;8.608;2023-02-11T08:13:52;102521.19;;;1.77;100.00
45541;BME280;31265;49.680;8.608;2023-02-11T08:16:23;102526.25;;;1.87;100.00
45541;BME280;31265;49.680;8.608;2023-02-11T08:18:55;102527.38;;;1.99;100.00
45541;BME280;31265;49.680;8.608;2023-02-11T08:21:24;102527.72;;;2.01;100.00
45541;BME280;31265;49.680;8.608;2023-02-11T08:23:54;102539.31;;;2.14;100.00
45541;BME280;31265;49.680;8.608;2023-02-11T08:26:23;102529.16;;;2.24;100.00
45541;BME280;31265;49.680;8.608;2023-02-11T08:28:54;102522.50;;;2.34;100.00
45541;BME280;31265;49.680;8.608;2023-02-11T08:31:24;102530.56;;;2.29;100.00
45541;BME280;31265;49.680;8.608;2023-02-11T08:33:54;102516.28;;;2.34;100.00
45541;BME280;31265;49.680;8.608;2023-02-11T08:36:25;102518.69;;;2.23;100.00
45541;BME280;31265;49.680;8.608;2023-02-11T08:38:56;102524.81;;;2.36;100.00
45541;BME280;31265;49.680;8.608;2023-02-11T08:41:44;102531.84;;;2.46;100.00
45541;BME280;31265;49.680;8.608;2023-02-11T08:44:12;102537.06;;;2.53;100.00
45541;BME280;31265;49.680;8.608;2023-02-11T08:46:40;102531.72;;;2.59;100.00
45541;BME280;31265;49.680;8.608;2023-02-11T08:49:10;102527.97;;;2.84;100.00
45541;BME280;31265;49.680;8.608;2023-02-11T08:51:38;102534.41;;;2.90;100.00
45541;BME280;31265;49.680;8.608;2023-02-11T08:54:07;102541.69;;;2.84;100.00
45541;BME280;31265;49.680;8.608;2023-02-11T08:56:36;102543.84;;;2.98;100.00
45541;BME280;31265;49.680;8.608;2023-02-11T08:59:05;102554.69;;;3.02;100.00
45541;BME280;31265;49.680;8.608;2023-02-11T09:01:35;102558.22;;;3.12;100.00
45541;BME280;31265;49.680;8.608;2023-02-11T09:04:03;102549.50;;;2.95;100.00
45541;BME280;31265;49.680;8.608;2023-02-11T09:06:33;102558.97;;;3.31;100.00
45541;BME280;31265;49.680;8.608;2023-02-11T09:09:01;102557.25;;;3.79;100.00
45541;BME280;31265;49.680;8.608;2023-02-11T09:11:32;102577.84;;;3.93;100.00
45541;BME280;31265;49.680;8.608;2023-02-11T09:14:02;102574.00;;;4.00;100.00
45541;BME280;31265;49.680;8.608;2023-02-11T09:16:33;102572.50;;;3.99;100.00
45541;BME280;31265;49.680;8.608;2023-02-11T09:19:03;102559.41;;;3.84;100.00
45541;BME280;31265;49.680;8.608;2023-02-11T09:21:33;102556.81;;;3.81;100.00
45541;BME280;31265;49.680;8.608;2023-02-11T09:24:02;102553.91;;;3.84;100.00
45541;BME280;31265;49.680;8.608;2023-02-11T09:26:34;102563.97;;;3.78;100.00
45541;BME280;31265;49.680;8.608;2023-02-11T09:29:04;102560.31;;;3.63;100.00
45541;BME280;31265;49.680;8.608;2023-02-11T09:31:32;102565.84;;;3.54;100.00
45541;BME280;31265;49.680;8.608;2023-02-11T09:34:04;102572.41;;;3.47;100.00
45541;BME280;31265;49.680;8.608;2023-02-11T09:36:35;102573.28;;;3.53;100.00
45541;BME280;31265;49.680;8.608;2023-02-11T09:39:06;102569.94;;;3.86;100.00
45541;BME280;31265;49.680;8.608;2023-02-11T09:41:54;102571.75;;;3.98;100.00
45541;BME280;31265;49.680;8.608;2023-02-11T09:44:29;102574.31;;;4.02;100.00
45541;BME280;31265;49.680;8.608;2023-02-11T09:46:59;102569.72;;;4.08;100.00
45541;BME280;31265;49.680;8.608;2023-02-11T09:49:33;102568.28;;;4.22;100.00
45541;BME280;31265;49.680;8.608;2023-02-11T09:52:12;102565.09;;;4.23;100.00
45541;BME280;31265;49.680;8.608;2023-02-11T09:54:53;102565.34;;;4.35;100.00
45541;BME280;31265;49.680;8.608;2023-02-11T09:57:32;102564.72;;;4.40;100.00
45541;BME280;31265;49.680;8.608;2023-02-11T10:00:01;102562.84;;;4.55;100.00
45541;BME280;31265;49.680;8.608;2023-02-11T10:02:46;102570.44;;;4.60;100.00
45541;BME280;31265;49.680;8.608;2023-02-11T10:05:33;102571.53;;;4.53;100.00
45541;BME280;31265;49.680;8.608;2023-02-11T10:08:17;102563.94;;;4.48;100.00
45541;BME280;31265;49.680;8.608;2023-02-11T10:10:50;102574.97;;;4.72;100.00
45541;BME280;31265;49.680;8.608;2023-02-11T10:13:41;102576.81;;;5.00;100.00
45541;BME280;31265;49.680;8.608;2023-02-11T10:16:26;102578.47;;;4.73;100.00
45541;BME280;31265;49.680;8.608;2023-02-11T10:19:12;102573.53;;;4.77;100.00
45541;BME280;31265;49.680;8.608;2023-02-11T10:21:50;102581.72;;;4.62;100.00
45541;BME280;31265;49.680;8.608;2023-02-11T10:24:23;102582.50;;;4.87;100.00
45541;BME280;31265;49.680;8.608;2023-02-11T10:26:51;102581.16;;;4.58;100.00
45541;BME280;31265;49.680;8.608;2023-02-11T10:29:33;102583.56;;;4.65;100.00
45541;BME280;31265;49.680;8.608;2023-02-11T10:32:06;102574.16;;;4.81;100.00
45541;BME280;31265;49.680;8.608;2023-02-11T10:34:40;102573.44;;;4.95;100.00
45541;BME280;31265;49.680;8.608;2023-02-11T10:37:11;102572.03;;;5.24;100.00
45541;BME280;31265;49.680;8.608;2023-02-11T10:39:41;102569.06;;;5.13;100.00
45541;BME280;31265;49.680;8.608;2023-02-11T10:42:11;102562.34;;;4.90;100.00
45541;BME280;31265;49.680;8.608;2023-02-11T10:44:42;102565.66;;;4.94;100.00
45541;BME280;31265;49.680;8.608;2023-02-11T10:47:19;102574.19;;;5.44;100.00
45541;BME280;31265;49.680;8.608;2023-02-11T10:49:49;102573.69;;;5.46;100.00
45541;BME280;31265;49.680;8.608;2023-02-11T10:52:20;102574.09;;;5.68;100.00
45541;BME280;31265;49.680;8.608;2023-02-11T10:55:00;102564.06;;;5.80;100.00
45541;BME280;31265;49.680;8.608;2023-02-11T10:57:34;102568.81;;;5.26;100.00
45541;BME280;31265;49.680;8.608;2023-02-11T11:00:07;102564.25;;;5.76;100.00
45541;BME280;31265;49.680;8.608;2023-02-11T11:02:52;102565.97;;;5.89;100.00
45541;BME280;31265;49.680;8.608;2023-02-11T11:05:28;102563.63;;;5.96;100.00
45541;BME280;31265;49.680;8.608;2023-02-11T11:07:59;102569.50;;;6.19;100.00
45541;BME280;31265;49.680;8.608;2023-02-11T11:10:35;102574.22;;;6.48;100.00
45541;BME280;31265;49.680;8.608;2023-02-11T11:13:30;102579.53;;;6.52;100.00
45541;BME280;31265;49.680;8.608;2023-02-11T11:16:08;102580.06;;;6.71;100.00
45541;BME280;31265;49.680;8.608;2023-02-11T11:18:43;102573.34;;;6.77;100.00
45541;BME280;31265;49.680;8.608;2023-02-11T11:21:14;102564.81;;;6.25;100.00
45541;BME280;31265;49.680;8.608;2023-02-11T11:23:48;102569.13;;;5.96;100.00
45541;BME280;31265;49.680;8.608;2023-02-11T11:26:20;102562.19;;;6.16;100.00
45541;BME280;31265;49.680;8.608;2023-02-11T11:28:57;102573.41;;;6.62;100.00
45541;BME280;31265;49.680;8.608;2023-02-11T11:31:31;102565.72;;;6.52;100.00
45541;BME280;31265;49.680;8.608;2023-02-11T11:34:16;102562.25;;;6.72;100.00
45541;BME280;31265;49.680;8.608;2023-02-11T11:36:48;102554.41;;;7.05;100.00
45541;BME280;31265;49.680;8.608;2023-02-11T11:39:22;102558.13;;;7.49;100.00
45541;BME280;31265;49.680;8.608;2023-02-11T11:41:55;102559.03;;;7.87;100.00
45541;BME280;31265;49.680;8.608;2023-02-11T11:44:29;102558.03;;;7.64;100.00
45541;BME280;31265;49.680;8.608;2023-02-11T11:47:24;102554.28;;;7.41;100.00
45541;BME280;31265;49.680;8.608;2023-02-11T11:50:11;102555.00;;;6.95;100.00
45541;BME280;31265;49.680;8.608;2023-02-11T11:52:45;102551.28;;;6.77;100.00
45541;BME280;31265;49.680;8.608;2023-02-11T11:55:19;102549.00;;;6.96;100.00
45541;BME280;31265;49.680;8.608;2023-02-11T11:57:49;102545.09;;;7.03;100.00
45541;BME280;31265;49.680;8.608;2023-02-11T12:00:20;102544.84;;;7.47;100.00
45541;BME280;31265;49.680;8.608;2023-02-11T12:03:17;102537.66;;;7.61;100.00
45541;BME280;31265;49.680;8.608;2023-02-11T12:06:02;102538.19;;;7.60;100.00
45541;BME280;31265;49.680;8.608;2023-02-11T12:08:42;102540.09;;;7.07;100.00
45541;BME280;31265;49.680;8.608;2023-02-11T12:11:17;102542.16;;;7.12;100.00
45541;BME280;31265;49.680;8.608;2023-02-11T12:13:59;102539.41;;;7.12;100.00
45541;BME280;31265;49.680;8.608;2023-02-11T12:16:42;102538.31;;;7.50;100.00
45541;BME280;31265;49.680;8.608;2023-02-11T12:19:32;102539.03;;;7.45;100.00
45541;BME280;31265;49.680;8.608;2023-02-11T12:22:09;102535.22;;;6.96;100.00
45541;BME280;31265;49.680;8.608;2023-02-11T12:24:50;102534.13;;;6.88;100.00
45541;BME280;31265;49.680;8.608;2023-02-11T12:27:40;102531.97;;;6.77;100.00
45541;BME280;31265;49.680;8.608;2023-02-11T12:30:33;102536.66;;;6.71;100.00
45541;BME280;31265;49.680;8.608;2023-02-11T12:33:12;102531.41;;;6.38;100.00
45541;BME280;31265;49.680;8.608;2023-02-11T12:35:52;102535.00;;;6.59;100.00
45541;BME280;31265;49.680;8.608;2023-02-11T12:38:38;102534.59;;;6.66;100.00
45541;BME280;31265;49.680;8.608;2023-02-11T12:41:26;102534.19;;;6.94;100.00
45541;BME280;31265;49.680;8.608;2023-02-11T12:44:24;102529.91;;;6.93;100.00
45541;BME280;31265;49.680;8.608;2023-02-11T12:47:04;102531.69;;;6.75;100.00
45541;BME280;31265;49.680;8.608;2023-02-11T12:49:47;102528.94;;;6.96;100.00
45541;BME280;31265;49.680;8.608;2023-02-11T12:52:36;102532.31;;;7.05;100.00
45541;BME280;31265;49.680;8.608;2023-02-11T12:55:12;102530.44;;;6.76;100.00
45541;BME280;31265;49.680;8.608;2023-02-11T12:57:45;102527.63;;;6.71;100.00
45541;BME280;31265;49.680;8.608;2023-02-11T13:00:20;102517.75;;;6.84;100.00
45541;BME280;31265;49.680;8.608;2023-02-11T13:02:55;102511.94;;;6.82;100.00
45541;BME280;31265;49.680;8.608;2023-02-11T13:05:27;102504.50;;;6.88;100.00
45541;BME280;31265;49.680;8.608;2023-02-11T13:08:03;102505.31;;;6.95;100.00
45541;BME280;31265;49.680;8.608;2023-02-11T13:10:34;102502.03;;;6.91;100.00
45541;BME280;31265;49.680;8.608;2023-02-11T13:13:11;102499.53;;;7.13;100.00
45541;BME280;31265;49.680;8.608;2023-02-11T13:15:47;102500.22;;;7.08;100.00
45541;BME280;31265;49.680;8.608;2023-02-11T13:18:26;102498.97;;;7.09;100.00
45541;BME280;31265;49.680;8.608;2023-02-11T13:21:03;102497.03;;;6.95;100.00
45541;BME280;31265;49.680;8.608;2023-02-11T13:23:38;102499.88;;;6.80;100.00